createdAt,value
2018-09-12T00:01:06.490Z,10.03
2018-09-12T00:03:34.983Z,10.17
2018-09-12T00:06:03.476Z,10.03
2018-09-12T00:08:31.961Z,11.23
2018-09-12T00:11:00.289Z,9.63
2018-09-12T00:13:28.911Z,10.03
2018-09-12T00:15:57.395Z,10.00
2018-09-12T00:18:25.753Z,9.50
2018-09-12T00:20:54.140Z,9.60
2018-09-12T00:23:22.497Z,10.07
2018-09-12T00:25:50.871Z,9.37
2018-09-12T00:28:19.359Z,9.27
2018-09-12T00:30:47.866Z,9.50
2018-09-12T00:33:16.309Z,8.70
2018-09-12T00:35:44.762Z,10.07
2018-09-12T00:38:13.162Z,9.30
2018-09-12T00:40:41.546Z,9.00
2018-09-12T00:43:09.892Z,9.70
2018-09-12T00:45:38.398Z,9.40
2018-09-12T00:48:06.779Z,10.90
2018-09-12T00:50:35.165Z,9.87
2018-09-12T00:53:03.647Z,11.23
2018-09-12T00:55:32.038Z,10.20
2018-09-12T00:58:00.476Z,11.27
2018-09-12T01:00:28.842Z,10.43
2018-09-12T01:02:57.263Z,11.27
2018-09-12T01:05:25.752Z,10.73
2018-09-12T01:07:54.176Z,9.90
2018-09-12T01:10:22.604Z,9.57
2018-09-12T01:12:51.100Z,10.70
2018-09-12T01:15:19.657Z,10.33
2018-09-12T01:17:48.066Z,9.53
2018-09-12T01:20:16.406Z,9.43
2018-09-12T01:22:44.762Z,9.57
2018-09-12T01:25:13.339Z,9.53
2018-09-12T01:27:41.806Z,9.57
2018-09-12T01:30:14.449Z,10.10
2018-09-12T01:32:42.945Z,9.77
2018-09-12T01:35:11.410Z,10.07
2018-09-12T01:37:39.744Z,9.57
2018-09-12T01:40:08.154Z,9.37
2018-09-12T01:42:36.730Z,10.10
2018-09-12T01:45:05.492Z,9.40
2018-09-12T01:47:33.837Z,10.90
2018-09-12T01:50:02.206Z,11.27
2018-09-12T01:52:30.683Z,10.33
2018-09-12T01:54:59.059Z,9.60
2018-09-12T01:57:27.449Z,10.00
2018-09-12T01:59:55.795Z,9.77
2018-09-12T02:02:24.234Z,9.57
2018-09-12T02:04:52.637Z,9.80
2018-09-12T02:07:21.156Z,9.33
2018-09-12T02:09:49.543Z,10.03
2018-09-12T02:12:17.903Z,8.80
2018-09-12T02:14:46.304Z,9.50
2018-09-12T02:17:14.674Z,9.37
2018-09-12T02:19:43.023Z,9.43
2018-09-12T02:22:11.402Z,10.50
2018-09-12T02:24:39.990Z,9.90
2018-09-12T02:27:08.483Z,8.83
2018-09-12T02:29:37.062Z,10.27
2018-09-12T02:32:05.547Z,9.60
2018-09-12T02:34:33.990Z,9.40
2018-09-12T02:37:02.488Z,10.33
2018-09-12T02:39:30.975Z,9.73
2018-09-12T02:41:59.415Z,10.20
2018-09-12T02:44:27.801Z,10.63
2018-09-12T02:46:56.237Z,11.40
2018-09-12T02:49:24.578Z,10.17
2018-09-12T02:51:53.003Z,11.23
2018-09-12T02:54:21.504Z,10.63
2018-09-12T02:56:49.862Z,10.10
2018-09-12T02:59:18.413Z,10.67
2018-09-12T03:01:47.048Z,11.03
2018-09-12T03:04:15.453Z,12.10
2018-09-12T03:06:43.950Z,11.50
2018-09-12T03:09:13.407Z,11.40
2018-09-12T03:11:41.937Z,11.17
2018-09-12T03:14:10.363Z,10.57
2018-09-12T03:16:38.707Z,10.67
2018-09-12T03:19:07.119Z,10.60
2018-09-12T03:21:35.470Z,9.60
2018-09-12T03:24:03.922Z,11.30
2018-09-12T03:26:32.313Z,9.53
2018-09-12T03:29:00.721Z,10.93
2018-09-12T03:31:29.218Z,9.10
2018-09-12T03:33:57.590Z,10.30
2018-09-12T03:36:25.941Z,9.87
2018-09-12T03:38:54.297Z,10.57
2018-09-12T03:41:22.885Z,10.53
2018-09-12T03:43:51.351Z,9.67
2018-09-12T03:46:19.871Z,10.37
2018-09-12T03:48:48.471Z,10.80
2018-09-12T03:51:17.025Z,10.20
2018-09-12T03:53:45.477Z,9.87
2018-09-12T03:56:13.967Z,10.10
2018-09-12T03:58:42.287Z,11.53
2018-09-12T04:01:10.716Z,10.10
2018-09-12T04:03:39.174Z,9.67
2018-09-12T04:06:07.696Z,10.43
2018-09-12T04:08:36.041Z,10.43
2018-09-12T04:11:04.516Z,10.87
2018-09-12T04:13:32.988Z,9.87
2018-09-12T04:16:01.450Z,10.47
2018-09-12T04:18:29.942Z,9.43
2018-09-12T04:20:58.429Z,10.07
2018-09-12T04:23:27.077Z,8.80
2018-09-12T04:25:55.480Z,10.10
2018-09-12T04:28:23.829Z,9.93
2018-09-12T04:30:52.310Z,9.20
2018-09-12T04:33:20.756Z,10.07
2018-09-12T04:35:49.241Z,10.23
2018-09-12T04:38:17.953Z,10.47
2018-09-12T04:40:46.442Z,8.87
2018-09-12T04:43:14.850Z,10.07
2018-09-12T04:45:43.380Z,8.83
2018-09-12T04:48:11.907Z,9.57
2018-09-12T04:50:40.432Z,9.17
2018-09-12T04:53:08.807Z,10.30
2018-09-12T04:55:37.175Z,9.07
2018-09-12T04:58:05.888Z,9.83
2018-09-12T05:00:34.366Z,9.83
2018-09-12T05:03:02.802Z,9.30
2018-09-12T05:05:31.194Z,10.20
2018-09-12T05:07:59.638Z,8.50
2018-09-12T05:10:28.012Z,10.23
2018-09-12T05:12:56.600Z,9.90
2018-09-12T05:15:25.010Z,9.60
2018-09-12T05:17:53.394Z,9.50
2018-09-12T05:20:22.002Z,9.53
2018-09-12T05:22:50.558Z,10.70
2018-09-12T05:25:18.980Z,10.70
2018-09-12T05:27:47.327Z,10.60
2018-09-12T05:30:15.821Z,10.80
2018-09-12T05:32:44.297Z,9.53
2018-09-12T05:35:12.706Z,10.50
2018-09-12T05:37:41.069Z,10.10
2018-09-12T05:40:09.501Z,10.87
2018-09-12T05:42:37.942Z,11.03
2018-09-12T05:45:06.381Z,11.97
2018-09-12T05:47:34.758Z,10.93
2018-09-12T05:50:03.197Z,10.20
2018-09-12T05:52:31.627Z,11.40
2018-09-12T05:55:00.071Z,10.60
2018-09-12T05:57:28.479Z,11.23
2018-09-12T05:59:56.931Z,12.60
2018-09-12T06:02:25.437Z,10.87
2018-09-12T06:04:53.925Z,11.20
2018-09-12T06:07:22.429Z,10.97
2018-09-12T06:09:50.807Z,11.87
2018-09-12T06:12:19.264Z,10.73
2018-09-12T06:14:47.887Z,10.97
2018-09-12T06:17:16.294Z,11.10
2018-09-12T06:19:44.745Z,11.47
2018-09-12T06:22:13.146Z,11.50
2018-09-12T06:24:41.558Z,12.00
2018-09-12T06:27:10.007Z,11.50
2018-09-12T06:29:38.536Z,12.03
2018-09-12T06:32:07.000Z,11.50
2018-09-12T06:34:35.382Z,11.43
2018-09-12T06:37:03.841Z,11.33
2018-09-12T06:39:32.311Z,9.83
2018-09-12T06:42:00.809Z,12.07
2018-09-12T06:44:29.299Z,10.80
2018-09-12T06:46:57.789Z,10.20
2018-09-12T06:49:26.221Z,9.17
2018-09-12T06:51:54.577Z,9.23
2018-09-12T06:54:23.201Z,9.93
2018-09-12T06:56:51.760Z,9.90
2018-09-12T06:59:20.146Z,9.20
2018-09-12T07:01:48.559Z,9.10
2018-09-12T07:04:16.950Z,8.90
2018-09-12T07:06:45.450Z,8.57
2018-09-12T07:09:13.776Z,8.43
2018-09-12T07:11:42.197Z,7.50
2018-09-12T07:14:10.731Z,7.20
2018-09-12T07:16:39.112Z,8.07
2018-09-12T07:19:07.578Z,9.10
2018-09-12T07:21:35.981Z,8.63
2018-09-12T07:24:04.418Z,7.87
2018-09-12T07:26:32.840Z,8.50
2018-09-12T07:29:01.301Z,8.13
2018-09-12T07:31:29.779Z,8.97
2018-09-12T07:33:58.221Z,8.23
2018-09-12T07:36:26.664Z,7.80
2018-09-12T07:38:55.038Z,7.20
2018-09-12T07:41:23.426Z,9.27
2018-09-12T07:43:52.005Z,7.23
2018-09-12T07:46:20.463Z,7.00
2018-09-12T07:48:48.941Z,6.67
2018-09-12T07:51:17.446Z,7.73
2018-09-12T07:53:45.841Z,6.80
2018-09-12T07:56:14.356Z,5.90
2018-09-12T07:58:42.657Z,7.33
2018-09-12T08:01:11.143Z,7.47
2018-09-12T08:03:39.528Z,6.30
2018-09-12T08:06:07.933Z,7.73
2018-09-12T08:08:36.299Z,6.60
2018-09-12T08:11:04.766Z,7.40
2018-09-12T08:13:33.269Z,6.57
2018-09-12T08:16:01.595Z,6.33
2018-09-12T08:18:29.972Z,6.30
2018-09-12T08:20:58.442Z,6.27
2018-09-12T08:23:26.849Z,6.23
2018-09-12T08:25:55.350Z,6.17
2018-09-12T08:28:23.877Z,6.23
2018-09-12T08:30:52.247Z,5.80
2018-09-12T08:33:20.822Z,5.23
2018-09-12T08:35:49.342Z,5.90
2018-09-12T08:38:17.813Z,6.17
2018-09-12T08:40:46.207Z,6.67
2018-09-12T08:43:14.661Z,5.80
2018-09-12T08:45:43.540Z,5.80
2018-09-12T08:48:12.055Z,5.43
2018-09-12T08:50:40.638Z,6.63
2018-09-12T08:53:09.006Z,5.83
2018-09-12T08:55:37.405Z,5.93
2018-09-12T08:58:05.856Z,5.80
2018-09-12T09:00:34.231Z,5.93
2018-09-12T09:03:04.068Z,5.70
2018-09-12T09:05:32.593Z,5.77
2018-09-12T09:08:01.001Z,5.73
2018-09-12T09:10:29.436Z,7.13
2018-09-12T09:12:58.090Z,5.43
2018-09-12T09:15:27.631Z,6.20
2018-09-12T09:17:56.073Z,6.23
2018-09-12T09:20:24.919Z,6.07
2018-09-12T09:22:53.390Z,5.87
2018-09-12T09:25:21.835Z,5.57
2018-09-12T09:27:50.459Z,5.73
2018-09-12T09:30:18.882Z,6.03
2018-09-12T09:32:47.481Z,5.03
2018-09-12T09:35:15.872Z,6.40
2018-09-12T09:37:44.274Z,5.97
2018-09-12T09:40:12.777Z,6.13
2018-09-12T09:42:41.157Z,5.83
2018-09-12T09:45:09.596Z,5.23
2018-09-12T09:47:37.986Z,5.43
2018-09-12T09:50:06.516Z,4.80
2018-09-12T09:52:35.050Z,5.47
2018-09-12T09:55:03.508Z,6.10
2018-09-12T09:57:32.038Z,5.70
2018-09-12T10:00:00.529Z,5.70
2018-09-12T10:02:34.355Z,5.00
2018-09-12T10:05:08.179Z,5.20
2018-09-12T10:07:41.919Z,4.97
2018-09-12T10:10:10.338Z,5.00
2018-09-12T10:12:39.065Z,6.00
2018-09-12T10:15:07.536Z,4.97
2018-09-12T10:17:35.990Z,5.10
2018-09-12T10:20:04.567Z,4.77
2018-09-12T10:22:32.929Z,5.00
2018-09-12T10:25:01.391Z,4.73
2018-09-12T10:27:29.750Z,5.30
2018-09-12T10:29:58.505Z,4.37
2018-09-12T10:32:26.945Z,4.50
2018-09-12T10:34:55.301Z,5.43
2018-09-12T10:37:23.738Z,5.10
2018-09-12T10:39:52.130Z,4.10
2018-09-12T10:42:20.765Z,4.20
2018-09-12T10:44:49.173Z,4.60
2018-09-12T10:47:17.566Z,4.03
2018-09-12T10:49:45.960Z,4.37
2018-09-12T10:52:14.360Z,3.83
2018-09-12T10:54:42.704Z,4.40
2018-09-12T10:57:11.291Z,5.10
2018-09-12T10:59:39.837Z,4.47
2018-09-12T11:02:08.334Z,4.53
2018-09-12T11:04:36.820Z,3.87
2018-09-12T11:07:05.387Z,4.40
2018-09-12T11:09:33.806Z,4.47
2018-09-12T11:12:02.395Z,4.60
2018-09-12T11:14:30.857Z,4.20
2018-09-12T11:16:59.395Z,4.50
2018-09-12T11:19:27.895Z,3.37
2018-09-12T11:21:56.295Z,4.40
2018-09-12T11:24:24.744Z,4.90
2018-09-12T11:26:53.112Z,3.90
2018-09-12T11:29:21.688Z,4.50
2018-09-12T11:31:50.077Z,4.30
2018-09-12T11:34:19.453Z,4.60
2018-09-12T11:36:47.766Z,4.17
2018-09-12T11:39:16.128Z,4.10
2018-09-12T11:41:44.485Z,4.73
2018-09-12T11:44:12.862Z,5.07
2018-09-12T11:46:41.382Z,4.60
2018-09-12T11:49:09.762Z,3.70
2018-09-12T11:51:38.159Z,4.30
2018-09-12T11:54:06.747Z,4.70
2018-09-12T11:56:35.164Z,3.90
2018-09-12T11:59:03.801Z,4.40
2018-09-12T12:01:32.267Z,4.00
2018-09-12T12:04:00.699Z,4.60
2018-09-12T12:06:29.119Z,4.23
2018-09-12T12:08:57.489Z,4.10
2018-09-12T12:11:25.854Z,3.83
2018-09-12T12:13:54.379Z,4.40
2018-09-12T12:16:22.900Z,3.80
2018-09-12T12:18:51.331Z,4.90
2018-09-12T12:21:19.722Z,4.33
2018-09-12T12:23:48.210Z,4.20
2018-09-12T12:26:16.667Z,3.73
2018-09-12T12:28:45.014Z,3.93
2018-09-12T12:31:13.535Z,3.30
2018-09-12T12:33:42.069Z,3.80
2018-09-12T12:36:10.536Z,3.90
2018-09-12T12:38:39.132Z,3.60
2018-09-12T12:41:07.493Z,2.80
2018-09-12T12:43:35.930Z,3.10
2018-09-12T12:46:04.424Z,3.07
2018-09-12T12:48:32.814Z,2.80
2018-09-12T12:51:01.327Z,3.43
2018-09-12T12:53:29.698Z,3.00
2018-09-12T12:55:58.123Z,3.67
2018-09-12T12:58:26.654Z,3.83
2018-09-12T13:00:55.134Z,4.33
2018-09-12T13:03:23.599Z,3.83
2018-09-12T13:05:52.075Z,3.97
2018-09-12T13:08:20.501Z,3.47
2018-09-12T13:10:48.913Z,3.67
2018-09-12T13:13:17.343Z,2.90
2018-09-12T13:15:45.818Z,3.27
2018-09-12T13:18:14.275Z,3.50
2018-09-12T13:20:42.717Z,3.40
2018-09-12T13:23:11.348Z,3.20
2018-09-12T13:25:39.716Z,3.17
2018-09-12T13:28:08.147Z,2.80
2018-09-12T13:30:36.629Z,3.70
2018-09-12T13:33:05.031Z,3.40
2018-09-12T13:35:33.538Z,2.87
2018-09-12T13:38:01.921Z,3.03
2018-09-12T13:40:30.373Z,3.07
2018-09-12T13:42:58.769Z,3.50
2018-09-12T13:45:27.362Z,3.60
2018-09-12T13:47:55.792Z,3.20
2018-09-12T13:50:24.165Z,3.47
2018-09-12T13:52:52.540Z,3.37
2018-09-12T13:55:20.984Z,3.03
2018-09-12T13:57:49.403Z,3.03
2018-09-12T14:00:17.865Z,4.30
2018-09-12T14:02:46.268Z,3.10
2018-09-12T14:05:14.726Z,2.80
2018-09-12T14:07:43.218Z,3.50
2018-09-12T14:10:11.658Z,3.80
2018-09-12T14:12:40.116Z,3.57
2018-09-12T14:15:08.618Z,3.53
2018-09-12T14:17:37.148Z,3.50
2018-09-12T14:20:05.618Z,3.33
2018-09-12T14:22:34.460Z,3.23
2018-09-12T14:25:02.935Z,3.30
2018-09-12T14:27:31.294Z,3.07
2018-09-12T14:29:59.670Z,3.00
2018-09-12T14:32:28.102Z,3.50
2018-09-12T14:34:56.559Z,2.90
2018-09-12T14:37:25.318Z,3.43
2018-09-12T14:39:53.763Z,3.50
2018-09-12T14:42:22.270Z,3.40
2018-09-12T14:44:50.769Z,4.27
2018-09-12T14:47:19.210Z,3.77
2018-09-12T14:49:47.559Z,2.90
2018-09-12T14:52:15.968Z,3.40
2018-09-12T14:54:44.426Z,4.03
2018-09-12T14:57:12.905Z,5.80
2018-09-12T14:59:41.391Z,8.90
2018-09-12T15:02:10.003Z,7.63
2018-09-12T15:04:38.454Z,4.70
2018-09-12T15:07:06.941Z,5.87
2018-09-12T15:09:35.374Z,4.70
2018-09-12T15:12:03.772Z,3.80
2018-09-12T15:14:32.148Z,4.63
2018-09-12T15:17:00.580Z,4.03
2018-09-12T15:19:29.029Z,4.13
2018-09-12T15:21:57.418Z,5.47
2018-09-12T15:24:25.944Z,4.70
2018-09-12T15:26:54.544Z,4.00
2018-09-12T15:29:22.925Z,3.83
2018-09-12T15:31:51.396Z,5.40
2018-09-12T15:34:19.803Z,3.80
2018-09-12T15:36:48.245Z,3.60
2018-09-12T15:39:16.629Z,4.20
2018-09-12T15:41:45.112Z,3.33
2018-09-12T15:44:13.634Z,3.10
2018-09-12T15:46:42.051Z,3.57
2018-09-12T15:49:10.560Z,3.33
2018-09-12T15:51:39.082Z,3.50
2018-09-12T15:54:07.565Z,3.90
2018-09-12T15:56:36.049Z,3.20
2018-09-12T15:59:04.674Z,3.50
2018-09-12T16:01:33.190Z,3.57
2018-09-12T16:04:01.595Z,3.73
2018-09-12T16:06:29.994Z,3.60
2018-09-12T16:08:58.454Z,3.07
2018-09-12T16:11:26.910Z,3.40
2018-09-12T16:13:55.289Z,3.03
2018-09-12T16:16:23.743Z,3.40
2018-09-12T16:18:52.094Z,4.17
2018-09-12T16:21:20.586Z,3.20
2018-09-12T16:23:49.006Z,3.90
2018-09-12T16:26:17.462Z,2.93
2018-09-12T16:28:45.954Z,4.00
2018-09-12T16:31:14.416Z,3.90
2018-09-12T16:33:42.878Z,4.77
2018-09-12T16:36:11.296Z,4.00
2018-09-12T16:38:39.875Z,3.03
2018-09-12T16:41:08.376Z,3.40
2018-09-12T16:43:36.907Z,3.70
2018-09-12T16:46:05.414Z,3.63
2018-09-12T16:48:34.011Z,4.17
2018-09-12T16:51:02.401Z,3.87
2018-09-12T16:53:30.946Z,3.73
2018-09-12T16:55:59.328Z,3.30
2018-09-12T16:58:27.794Z,3.87
2018-09-12T17:00:56.186Z,4.30
2018-09-12T17:03:24.726Z,4.37
2018-09-12T17:05:53.283Z,3.80
2018-09-12T17:08:21.844Z,3.60
2018-09-12T17:10:50.451Z,4.00
2018-09-12T17:13:18.878Z,3.80
2018-09-12T17:15:47.511Z,20.67
2018-09-12T17:18:16.226Z,12.50
2018-09-12T17:20:44.640Z,5.03
2018-09-12T17:23:13.139Z,4.67
2018-09-12T17:25:41.962Z,4.53
2018-09-12T17:28:10.404Z,6.43
2018-09-12T17:30:38.890Z,5.63
2018-09-12T17:33:07.319Z,4.93
2018-09-12T17:35:36.142Z,5.20
2018-09-12T17:38:04.714Z,5.07
2018-09-12T17:40:33.192Z,4.80
2018-09-12T17:43:01.716Z,5.20
2018-09-12T17:45:30.232Z,6.10
2018-09-12T17:47:58.728Z,4.17
2018-09-12T17:50:27.274Z,4.37
2018-09-12T17:52:55.751Z,5.20
2018-09-12T17:55:24.451Z,5.80
2018-09-12T17:57:52.990Z,6.20
2018-09-12T18:00:21.512Z,5.60
2018-09-12T18:02:50.154Z,5.70
2018-09-12T18:05:18.654Z,5.30
2018-09-12T18:07:47.083Z,5.30
2018-09-12T18:10:15.598Z,5.97
2018-09-12T18:12:44.162Z,5.37
2018-09-12T18:15:12.785Z,5.10
2018-09-12T18:17:41.552Z,5.83
2018-09-12T18:20:10.062Z,6.60
2018-09-12T18:22:38.591Z,5.23
2018-09-12T18:25:07.183Z,5.87
2018-09-12T18:27:35.853Z,5.20
2018-09-12T18:30:04.823Z,5.70
2018-09-12T18:32:33.372Z,6.47
2018-09-12T18:35:01.818Z,6.33
2018-09-12T18:37:30.309Z,5.60
2018-09-12T18:39:58.767Z,6.40
2018-09-12T18:42:27.356Z,7.00
2018-09-12T18:44:55.870Z,5.90
2018-09-12T18:47:24.365Z,5.70
2018-09-12T18:49:52.799Z,6.57
2018-09-12T18:52:21.575Z,6.73
2018-09-12T18:54:50.302Z,6.47
2018-09-12T18:57:18.750Z,6.87
2018-09-12T18:59:47.361Z,7.43
2018-09-12T19:02:16.328Z,7.50
2018-09-12T19:04:44.966Z,7.13
2018-09-12T19:07:13.581Z,5.87
2018-09-12T19:09:41.986Z,6.37
2018-09-12T19:12:10.417Z,6.50
2018-09-12T19:14:38.994Z,6.50
2018-09-12T19:17:07.530Z,6.30
2018-09-12T19:19:36.054Z,6.70
2018-09-12T19:22:04.576Z,7.20
2018-09-12T19:24:33.019Z,7.67
2018-09-12T19:27:01.442Z,7.03
2018-09-12T19:29:29.903Z,7.83
2018-09-12T19:31:58.357Z,8.40
2018-09-12T19:34:26.834Z,7.83
2018-09-12T19:36:55.299Z,7.30
2018-09-12T19:39:23.820Z,7.93
2018-09-12T19:41:52.301Z,7.83
2018-09-12T19:44:20.822Z,6.97
2018-09-12T19:46:49.460Z,7.77
2018-09-12T19:49:17.900Z,7.67
2018-09-12T19:51:46.511Z,7.17
2018-09-12T19:54:15.124Z,7.33
2018-09-12T19:56:43.690Z,6.50
2018-09-12T19:59:12.143Z,7.23
2018-09-12T20:01:40.773Z,7.43
2018-09-12T20:04:09.251Z,6.80
2018-09-12T20:06:37.774Z,7.10
2018-09-12T20:09:08.373Z,8.40
2018-09-12T20:11:36.909Z,8.97
2018-09-12T20:14:05.514Z,7.30
2018-09-12T20:16:34.034Z,7.40
2018-09-12T20:19:03.163Z,8.33
2018-09-12T20:21:31.604Z,8.33
2018-09-12T20:24:00.345Z,7.60
2018-09-12T20:26:28.728Z,9.57
2018-09-12T20:28:57.178Z,9.23
2018-09-12T20:31:25.764Z,8.83
2018-09-12T20:33:54.255Z,7.03
2018-09-12T20:36:22.723Z,6.63
2018-09-12T20:38:51.169Z,6.23
2018-09-12T20:41:19.748Z,5.80
2018-09-12T20:43:48.268Z,5.70
2018-09-12T20:46:16.687Z,7.10
2018-09-12T20:48:45.282Z,6.43
2018-09-12T20:51:13.788Z,6.30
2018-09-12T20:53:42.280Z,5.43
2018-09-12T20:56:10.713Z,6.40
2018-09-12T20:58:39.302Z,5.57
2018-09-12T21:01:07.781Z,5.80
2018-09-12T21:03:36.294Z,5.37
2018-09-12T21:06:04.912Z,6.27
2018-09-12T21:08:33.574Z,5.90
2018-09-12T21:11:01.951Z,5.30
2018-09-12T21:13:30.523Z,6.17
2018-09-12T21:15:58.999Z,6.63
2018-09-12T21:18:27.584Z,7.47
2018-09-12T21:20:56.097Z,6.53
2018-09-12T21:23:24.619Z,6.37
2018-09-12T21:25:53.035Z,6.30
2018-09-12T21:28:21.418Z,6.53
2018-09-12T21:30:49.911Z,7.23
2018-09-12T21:33:18.500Z,7.20
2018-09-12T21:35:46.972Z,7.13
2018-09-12T21:38:15.600Z,8.40
2018-09-12T21:40:44.066Z,7.60
2018-09-12T21:43:12.609Z,6.83
2018-09-12T21:45:41.024Z,7.33
2018-09-12T21:48:09.419Z,8.97
2018-09-12T21:50:37.933Z,8.27
2018-09-12T21:53:06.353Z,8.33
2018-09-12T21:55:34.771Z,7.70
2018-09-12T21:58:03.290Z,7.57
2018-09-12T22:00:31.711Z,8.00
2018-09-12T22:03:00.210Z,8.50
2018-09-12T22:05:29.133Z,8.73
2018-09-12T22:07:58.356Z,8.40
2018-09-12T22:10:27.319Z,9.13
2018-09-12T22:12:55.881Z,9.77
2018-09-12T22:15:24.469Z,8.60
2018-09-12T22:17:52.829Z,10.07
2018-09-12T22:20:21.205Z,10.73
2018-09-12T22:22:49.641Z,11.50
2018-09-12T22:25:18.042Z,10.37
2018-09-12T22:27:46.509Z,11.47
2018-09-12T22:30:15.001Z,11.30
2018-09-12T22:32:43.486Z,11.63
2018-09-12T22:35:11.987Z,12.00
2018-09-12T22:37:40.405Z,10.57
2018-09-12T22:40:08.960Z,11.45
2018-09-12T22:42:37.486Z,12.00
2018-09-12T22:45:06.314Z,12.13
2018-09-12T22:47:34.955Z,11.68
2018-09-12T22:50:03.372Z,12.45
2018-09-12T22:52:31.783Z,11.48
2018-09-12T22:55:00.143Z,12.13
2018-09-12T22:57:28.770Z,11.75
2018-09-12T22:59:57.265Z,11.70
2018-09-12T23:02:25.827Z,10.48
2018-09-12T23:04:54.265Z,10.00
2018-09-12T23:07:22.683Z,9.55
2018-09-12T23:09:52.162Z,10.00
2018-09-12T23:12:20.542Z,10.00
2018-09-12T23:14:49.034Z,9.98
2018-09-12T23:17:17.448Z,9.50
2018-09-12T23:19:45.873Z,9.53
2018-09-12T23:22:14.335Z,9.93
2018-09-12T23:24:42.786Z,10.45
2018-09-12T23:27:11.192Z,9.68
2018-09-12T23:29:39.623Z,9.90
2018-09-12T23:32:08.137Z,9.43
2018-09-12T23:34:36.660Z,9.30
2018-09-12T23:37:05.104Z,10.55
2018-09-12T23:39:33.542Z,9.37
2018-09-12T23:42:02.018Z,9.10
2018-09-12T23:44:30.605Z,9.60
2018-09-12T23:46:59.051Z,10.58
2018-09-12T23:49:27.523Z,9.60
2018-09-12T23:51:55.999Z,9.63
2018-09-12T23:54:24.520Z,9.10
2018-09-12T23:56:52.911Z,9.58
2018-09-12T23:59:21.538Z,9.38
